Cedar Canyon, South Dakota
Current Conditions -  °F | °C
As of 12:55 PM on Monday 24 Nov 2014 (Local Time) from KSPF Reporting Station
Heavy Snow Heavy Snow  
Wind Chill: 16°   Ceiling: Unl
Heat Index: 30°   Visibility: 0mi
Dew Point: 28°   Wind: 24mph
Humidity: 93%   Direction: 300°WNW
Pressure: 29.96"   Gusts: 39mph
Location:  44.9094°N, 103.193°W
Report Text: KSPF 241955Z AUTO 30021G34KT M1/4SM +SN VV000 M01/M02 A2996 RMK AO2 P0073
Loading
Personal Weather Stations






























Interactive Weather Map New forecast layout! Learn more

10-Day Weather Forecast

Advertisements
Track Severe Weather on mobile